• Join FlightAware (Why Join?)
  • Login
  • US Flag 
09:32AM EDT


 

Airport Tracker/Info


-or-


 

Live Flight TrackerFlight Track Log ✈ N818GM ✈ 10-May-2013 ✈ KGNV - KAPF

Flight Track Log - Related Links

Times and Time Zones

All times are in EDT time to prevent confusion due to time zone crossing. See the N818GM flight status page for this flight to view local times or setup timezone preferences in your user account.

Time Position Orientation Groundspeed Altitude Reporting Facility
EDT Latitude Longitude Course Direction KTS MPH feet Rate Location/Type
04:33PM 29.6533 -82.2903 187° South 137 158 1,400  Level Jacksonville Center
04:34PM 29.6200 -82.2811 167° South 155 178 2,000 660 Climbing Jacksonville Center
04:35PM 29.5803 -82.2789 177° South 142 163 2,700 720 Climbing Jacksonville Center
04:36PM 29.5386 -82.2744 175° South 138 159 3,600 720 Climbing Jacksonville Center
04:37PM 29.5008 -82.2675 171° South 137 158 4,300 660 Climbing Jacksonville Center
04:38PM 29.4265 -82.2366 174° South  Level FlightAware Approximate
04:38PM 29.4611 -82.2628 174° South 137 158 5,000  Level Jacksonville Center
04:39PM 29.4194 -82.2583 175° South 164 189 5,000  Level Jacksonville Center
04:40PM 29.3756 -82.2539 175° South 165 190 5,000 180 Level Jacksonville Center
04:41PM 29.3317 -82.2494 175° South 154 177 5,400 420 Climbing Jacksonville Center
04:42PM 29.2878 -82.2425 172° South 146 168 5,900 540 Climbing Jacksonville Center
04:43PM 29.2481 -82.2381 174° South 142 163 6,600 540 Climbing Jacksonville Center
04:44PM 29.2106 -82.2336 174° South 140 161 7,000 180 Climbing Jacksonville Center
04:45PM 29.1689 -82.2267 172° South 153 176 7,000  Level Jacksonville Center
04:46PM 29.1228 -82.2200 173° South 167 192 7,000 -60 Level Jacksonville Center
04:47PM 29.0728 -82.2178 178° South 168 193 6,900 -60 Descending Jacksonville Center
04:49PM 29.0247 -82.2278 190° South 163 188 6,900  Level Jacksonville Center
04:50PM 28.9853 -82.2492 205° Southwest 160 184 7,000  Climbing Jacksonville Center
04:51PM 28.9436 -82.2708 204° Southwest 160 184 7,000  Level Jacksonville Center
04:52PM 28.8978 -82.2903 200° South 161 185 7,100 60 Climbing Jacksonville Center
04:53PM 28.8581 -82.3000 192° South 155 178 7,200 120 Climbing Jacksonville Center
04:54PM 28.8164 -82.2836 161° South 160 184 7,400  Climbing Jacksonville Center
04:56PM 28.7447 -82.2465 150° Southeast  Level FlightAware Approximate
05:03PM 28.4657 -82.1324 166° South  Level FlightAware Approximate
05:04PM 28.4242 -82.1210 166° South  Level FlightAware Approximate
05:05PM 28.3826 -82.1095 166° South  Level FlightAware Approximate
05:06PM 28.3411 -82.0981 166° South  Level FlightAware Approximate
05:07PM 28.2995 -82.0866 166° South  Level FlightAware Approximate
05:08PM 28.2579 -82.0752 166° South  Level FlightAware Approximate
05:09PM 28.2164 -82.0638 166° South  Level FlightAware Approximate
05:10PM 28.1748 -82.0524 166° South  Level FlightAware Approximate
05:11PM 28.1332 -82.0410 166° South  Level FlightAware Approximate
05:12PM 28.0917 -82.0296 166° South  Level FlightAware Approximate
05:13PM 28.0501 -82.0182 166° South  Level FlightAware Approximate
05:14PM 28.0085 -82.0069 166° South  Level FlightAware Approximate
05:15PM 27.9682 -81.9916 154° Southeast  Level FlightAware Approximate
05:16PM 27.9298 -81.9703 154° Southeast  Level FlightAware Approximate
05:17PM 27.8915 -81.9489 154° Southeast  Level FlightAware Approximate
05:18PM 27.8531 -81.9276 154° Southeast  Level FlightAware Approximate
05:19PM 27.8143 -81.9071 156° South  Level FlightAware Approximate
05:20PM 27.7752 -81.8875 156° South  Level FlightAware Approximate
05:21PM 27.7362 -81.8680 156° South  Level FlightAware Approximate
05:22PM 27.6971 -81.8484 156° South  Level FlightAware Approximate
05:23PM 27.6580 -81.8288 156° South  Level FlightAware Approximate
05:24PM 27.6189 -81.8093 156° South  Level FlightAware Approximate
05:25PM 27.5798 -81.7898 156° South  Level FlightAware Approximate
05:26PM 27.5406 -81.7703 156° South  Level FlightAware Approximate
05:27PM 27.5015 -81.7508 156° South  Level FlightAware Approximate
05:28PM 27.4637 -81.7282 152° Southeast  Level FlightAware Approximate
05:29PM 27.4260 -81.7056 152° Southeast  Level FlightAware Approximate
05:30PM 27.3876 -81.6843 154° Southeast  Level FlightAware Approximate
05:31PM 27.3490 -81.6635 154° Southeast  Level FlightAware Approximate
05:32PM 27.3105 -81.6428 154° Southeast  Level FlightAware Approximate
05:32PM 27.2833 -82.5667 195° South 173 199 7,500  Level Tampa TRACON
05:33PM 27.2719 -81.6220 154° Southeast  Level FlightAware Approximate
05:33PM 27.2500 -82.5333 138° Southeast 173 199 7,500  Level Tampa TRACON
05:34PM 27.2333 -81.6012 154° Southeast  Level FlightAware Approximate
05:34PM 27.2000 -82.5167 163° South 171 197 7,500  Level Tampa TRACON
05:35PM 27.1943 -81.5850 195° South  Level FlightAware Approximate
05:35PM 27.1667 -82.4833 138° Southeast 171 197 7,500  Level Tampa TRACON
05:36PM 27.1530 -81.5974 195° South  Level FlightAware Approximate
05:36PM 27.1167 -82.4500 149° Southeast 169 194 7,400  Level Tampa TRACON
05:37PM 27.1117 -81.6098 195° South  Level FlightAware Approximate
05:37PM 27.0833 -82.4333 156° South 173 199 7,500  Level Tampa TRACON
05:38PM 27.0500 -82.4000 138° Southeast 171 197 7,500  Level Tampa TRACON
05:39PM 27.0000 -82.3667 149° Southeast 171 197 7,500  Level Tampa TRACON
05:41PM 26.9274 -82.3068 145° Southeast  Level FlightAware Approximate
05:48PM 26.6364 -82.0828 145° Southeast  Level FlightAware Approximate
05:49PM 26.5947 -82.0509 146° Southeast  Level FlightAware Approximate
05:50PM 26.5531 -82.0191 146° Southeast  Level FlightAware Approximate
05:51PM 26.5121 -81.9863 144° Southeast  Level FlightAware Approximate
05:52PM 26.4711 -81.9535 144° Southeast  Level FlightAware Approximate
05:53PM 26.4298 -81.9210 145° Southeast  Level FlightAware Approximate
05:54PM 26.3886 -81.8886 145° Southeast  Level FlightAware Approximate
05:55PM 26.3474 -81.8561 145° Southeast  Level FlightAware Approximate
05:56PM 26.3061 -81.8238 145° Southeast  Level FlightAware Approximate
05:57PM 26.2649 -81.7914 145° Southeast  Level FlightAware Approximate
05:58PM 26.2214 -81.7667 180° South  Level FlightAware Approximate
05:59PM 26.1710 -81.7667 180° South  Level FlightAware Approximate
06:00PM 26.1500 -81.7667 180° South  Level FlightAware Approximate
06:01PM 26.1524 -81.7756 180° South  Level Estimated
06:02PM 26.1524 -81.7756 180° South  Level Estimated
06:03PM 26.1524 -81.7756 180° South  Level Estimated
06:04PM 26.1524 -81.7756 180° South  Level Estimated
06:05PM 26.1524 -81.7756 180° South  Level Estimated
06:06PM 26.1524 -81.7756 180° South  Level Estimated
06:07PM 26.1524 -81.7756 180° South  Level Estimated
06:08PM 26.1524 -81.7756 180° South  Level Estimated
06:09PM 26.1524 -81.7756 180° South  Level Estimated
06:10PM 26.1524 -81.7756 180° South  Level Estimated
06:11PM 26.1524 -81.7756 180° South  Level Estimated
06:12PM 26.1524 -81.7756 180° South  Level Estimated
06:13PM 26.1524 -81.7756 180° South  Level Estimated
06:14PM 26.1524 -81.7756 180° South  Level Estimated